sensor_id;sensor_type;location;lat;lon;timestamp;temperature;humidity
65598;SHT31;52267;51.984;20.956;2022-08-25T00:01:54;21.58;79.97
65598;SHT31;52267;51.984;20.956;2022-08-25T00:04:25;21.55;79.98
65598;SHT31;52267;51.984;20.956;2022-08-25T00:06:54;21.53;79.95
65598;SHT31;52267;51.984;20.956;2022-08-25T00:09:23;21.50;80.04
65598;SHT31;52267;51.984;20.956;2022-08-25T00:11:53;21.49;80.16
65598;SHT31;52267;51.984;20.956;2022-08-25T00:14:22;21.46;80.18
65598;SHT31;52267;51.984;20.956;2022-08-25T00:16:56;21.44;80.08
65598;SHT31;52267;51.984;20.956;2022-08-25T00:19:25;21.43;80.09
65598;SHT31;52267;51.984;20.956;2022-08-25T00:21:55;21.42;80.12
65598;SHT31;52267;51.984;20.956;2022-08-25T00:24:22;21.41;80.14
65598;SHT31;52267;51.984;20.956;2022-08-25T00:26:50;21.39;80.22
65598;SHT31;52267;51.984;20.956;2022-08-25T00:29:21;21.38;80.24
65598;SHT31;52267;51.984;20.956;2022-08-25T00:31:51;21.38;80.24
65598;SHT31;52267;51.984;20.956;2022-08-25T00:34:27;21.38;80.26
65598;SHT31;52267;51.984;20.956;2022-08-25T00:36:59;21.37;80.27
65598;SHT31;52267;51.984;20.956;2022-08-25T00:39:27;21.37;80.28
65598;SHT31;52267;51.984;20.956;2022-08-25T00:41:55;21.36;80.39
65598;SHT31;52267;51.984;20.956;2022-08-25T00:44:23;21.34;80.49
65598;SHT31;52267;51.984;20.956;2022-08-25T00:46:55;21.35;80.53
65598;SHT31;52267;51.984;20.956;2022-08-25T00:49:35;21.32;80.57
65598;SHT31;52267;51.984;20.956;2022-08-25T00:52:11;21.32;80.58
65598;SHT31;52267;51.984;20.956;2022-08-25T00:54:55;21.32;80.64
65598;SHT31;52267;51.984;20.956;2022-08-25T00:57:33;21.33;80.66
65598;SHT31;52267;51.984;20.956;2022-08-25T01:00:08;21.33;80.81
65598;SHT31;52267;51.984;20.956;2022-08-25T01:02:42;21.33;80.86
65598;SHT31;52267;51.984;20.956;2022-08-25T01:05:09;21.33;80.92
65598;SHT31;52267;51.984;20.956;2022-08-25T01:07:36;21.34;81.00
65598;SHT31;52267;51.984;20.956;2022-08-25T01:10:04;21.33;81.04
65598;SHT31;52267;51.984;20.956;2022-08-25T01:12:33;21.34;81.13
65598;SHT31;52267;51.984;20.956;2022-08-25T01:15:02;21.34;81.24
65598;SHT31;52267;51.984;20.956;2022-08-25T01:17:32;21.33;81.28
65598;SHT31;52267;51.984;20.956;2022-08-25T01:20:22;21.33;81.35
65598;SHT31;52267;51.984;20.956;2022-08-25T01:22:52;21.33;81.39
65598;SHT31;52267;51.984;20.956;2022-08-25T01:25:23;21.32;81.48
65598;SHT31;52267;51.984;20.956;2022-08-25T01:28:09;21.32;81.59
65598;SHT31;52267;51.984;20.956;2022-08-25T01:30:36;21.32;81.56
65598;SHT31;52267;51.984;20.956;2022-08-25T01:33:04;21.31;81.60
65598;SHT31;52267;51.984;20.956;2022-08-25T01:35:33;21.32;81.66
65598;SHT31;52267;51.984;20.956;2022-08-25T01:38:02;21.31;81.67
65598;SHT31;52267;51.984;20.956;2022-08-25T01:40:31;21.31;81.75
65598;SHT31;52267;51.984;20.956;2022-08-25T01:45:40;21.30;81.85
65598;SHT31;52267;51.984;20.956;2022-08-25T01:48:12;21.30;81.88
65598;SHT31;52267;51.984;20.956;2022-08-25T01:50:40;21.30;81.89
65598;SHT31;52267;51.984;20.956;2022-08-25T01:53:21;21.30;82.00
65598;SHT31;52267;51.984;20.956;2022-08-25T01:55:54;21.30;82.06
65598;SHT31;52267;51.984;20.956;2022-08-25T01:58:28;21.29;82.04
65598;SHT31;52267;51.984;20.956;2022-08-25T02:00:58;21.27;82.12
65598;SHT31;52267;51.984;20.956;2022-08-25T02:03:30;21.28;82.20
65598;SHT31;52267;51.984;20.956;2022-08-25T02:05:57;21.26;82.23
65598;SHT31;52267;51.984;20.956;2022-08-25T02:08:25;21.26;82.27
65598;SHT31;52267;51.984;20.956;2022-08-25T02:10:52;21.25;82.36
65598;SHT31;52267;51.984;20.956;2022-08-25T02:13:21;21.24;82.43
65598;SHT31;52267;51.984;20.956;2022-08-25T02:15:49;21.24;82.43
65598;SHT31;52267;51.984;20.956;2022-08-25T02:18:18;21.23;82.56
65598;SHT31;52267;51.984;20.956;2022-08-25T02:20:47;21.20;82.60
65598;SHT31;52267;51.984;20.956;2022-08-25T02:23:14;21.20;82.59
65598;SHT31;52267;51.984;20.956;2022-08-25T02:25:41;21.18;82.64
65598;SHT31;52267;51.984;20.956;2022-08-25T02:28:09;21.14;82.74
65598;SHT31;52267;51.984;20.956;2022-08-25T02:30:39;21.12;82.78
65598;SHT31;52267;51.984;20.956;2022-08-25T02:33:08;21.09;82.83
65598;SHT31;52267;51.984;20.956;2022-08-25T02:35:35;21.08;82.87
65598;SHT31;52267;51.984;20.956;2022-08-25T02:38:03;21.07;82.91
65598;SHT31;52267;51.984;20.956;2022-08-25T02:40:31;21.03;83.02
65598;SHT31;52267;51.984;20.956;2022-08-25T02:42:58;21.00;83.15
65598;SHT31;52267;51.984;20.956;2022-08-25T02:45:25;20.97;83.60
65598;SHT31;52267;51.984;20.956;2022-08-25T02:47:52;20.87;83.84
65598;SHT31;52267;51.984;20.956;2022-08-25T02:50:19;20.81;83.82
65598;SHT31;52267;51.984;20.956;2022-08-25T02:52:46;20.80;83.71
65598;SHT31;52267;51.984;20.956;2022-08-25T02:55:16;20.78;83.67
65598;SHT31;52267;51.984;20.956;2022-08-25T02:57:44;20.76;83.68
65598;SHT31;52267;51.984;20.956;2022-08-25T03:00:11;20.73;83.70
65598;SHT31;52267;51.984;20.956;2022-08-25T03:02:41;20.72;83.60
65598;SHT31;52267;51.984;20.956;2022-08-25T03:05:09;20.68;83.69
65598;SHT31;52267;51.984;20.956;2022-08-25T03:07:37;20.63;83.81
65598;SHT31;52267;51.984;20.956;2022-08-25T03:10:06;20.58;83.87
65598;SHT31;52267;51.984;20.956;2022-08-25T03:12:37;20.56;83.91
65598;SHT31;52267;51.984;20.956;2022-08-25T03:15:10;20.51;83.96
65598;SHT31;52267;51.984;20.956;2022-08-25T03:17:42;20.50;83.87
65598;SHT31;52267;51.984;20.956;2022-08-25T03:20:11;20.51;83.74
65598;SHT31;52267;51.984;20.956;2022-08-25T03:22:38;20.52;83.65
65598;SHT31;52267;51.984;20.956;2022-08-25T03:25:05;20.52;83.62
65598;SHT31;52267;51.984;20.956;2022-08-25T03:27:53;20.48;83.75
65598;SHT31;52267;51.984;20.956;2022-08-25T03:30:20;20.43;83.79
65598;SHT31;52267;51.984;20.956;2022-08-25T03:32:47;20.40;83.83
65598;SHT31;52267;51.984;20.956;2022-08-25T03:35:14;20.41;83.74
65598;SHT31;52267;51.984;20.956;2022-08-25T03:37:41;20.41;83.68
65598;SHT31;52267;51.984;20.956;2022-08-25T03:40:09;20.39;83.65
65598;SHT31;52267;51.984;20.956;2022-08-25T03:42:39;20.37;83.74
65598;SHT31;52267;51.984;20.956;2022-08-25T03:45:10;20.34;83.83
65598;SHT31;52267;51.984;20.956;2022-08-25T03:47:41;20.34;83.85
65598;SHT31;52267;51.984;20.956;2022-08-25T03:50:11;20.34;83.87
65598;SHT31;52267;51.984;20.956;2022-08-25T03:52:39;20.32;84.07
65598;SHT31;52267;51.984;20.956;2022-08-25T03:55:07;20.32;84.27
65598;SHT31;52267;51.984;20.956;2022-08-25T03:57:37;20.33;84.52
65598;SHT31;52267;51.984;20.956;2022-08-25T04:00:07;20.35;84.53
65598;SHT31;52267;51.984;20.956;2022-08-25T04:02:37;20.39;84.52
65598;SHT31;52267;51.984;20.956;2022-08-25T04:05:05;20.41;84.47
65598;SHT31;52267;51.984;20.956;2022-08-25T04:07:33;20.46;84.50
65598;SHT31;52267;51.984;20.956;2022-08-25T04:10:00;20.48;84.61
65598;SHT31;52267;51.984;20.956;2022-08-25T04:12:27;20.49;84.78
65598;SHT31;52267;51.984;20.956;2022-08-25T04:14:54;20.54;84.83
65598;SHT31;52267;51.984;20.956;2022-08-25T04:17:21;20.57;84.87
65598;SHT31;52267;51.984;20.956;2022-08-25T04:19:48;20.60;84.95
65598;SHT31;52267;51.984;20.956;2022-08-25T04:22:15;20.64;84.97
65598;SHT31;52267;51.984;20.956;2022-08-25T04:24:42;20.70;84.97
65598;SHT31;52267;51.984;20.956;2022-08-25T04:27:09;20.73;84.96
65598;SHT31;52267;51.984;20.956;2022-08-25T04:29:36;20.76;84.97
65598;SHT31;52267;51.984;20.956;2022-08-25T04:32:03;20.82;84.95
65598;SHT31;52267;51.984;20.956;2022-08-25T04:34:31;20.86;85.03
65598;SHT31;52267;51.984;20.956;2022-08-25T04:36:59;20.88;85.05
65598;SHT31;52267;51.984;20.956;2022-08-25T04:39:28;20.92;85.02
65598;SHT31;52267;51.984;20.956;2022-08-25T04:41:56;20.97;85.05
65598;SHT31;52267;51.984;20.956;2022-08-25T04:44:25;21.01;85.07
65598;SHT31;52267;51.984;20.956;2022-08-25T04:46:53;21.05;85.00
65598;SHT31;52267;51.984;20.956;2022-08-25T04:49:20;21.09;84.95
65598;SHT31;52267;51.984;20.956;2022-08-25T04:51:47;21.14;84.97
65598;SHT31;52267;51.984;20.956;2022-08-25T04:54:14;21.17;84.96
65598;SHT31;52267;51.984;20.956;2022-08-25T04:56:46;21.23;84.97
65598;SHT31;52267;51.984;20.956;2022-08-25T04:59:16;21.27;84.91
65598;SHT31;52267;51.984;20.956;2022-08-25T05:01:44;21.32;84.86
65598;SHT31;52267;51.984;20.956;2022-08-25T05:04:13;21.37;84.79
65598;SHT31;52267;51.984;20.956;2022-08-25T05:06:42;21.42;84.78
65598;SHT31;52267;51.984;20.956;2022-08-25T05:09:09;21.48;84.81
65598;SHT31;52267;51.984;20.956;2022-08-25T05:11:37;21.55;84.63
65598;SHT31;52267;51.984;20.956;2022-08-25T05:14:04;21.62;84.46
65598;SHT31;52267;51.984;20.956;2022-08-25T05:16:36;21.68;84.37
65598;SHT31;52267;51.984;20.956;2022-08-25T05:19:04;21.78;84.34
65598;SHT31;52267;51.984;20.956;2022-08-25T05:21:33;21.85;84.19
65598;SHT31;52267;51.984;20.956;2022-08-25T05:24:00;21.92;84.04
65598;SHT31;52267;51.984;20.956;2022-08-25T05:26:28;21.98;83.95
65598;SHT31;52267;51.984;20.956;2022-08-25T05:29:00;22.05;83.88
65598;SHT31;52267;51.984;20.956;2022-08-25T05:31:29;22.11;83.84
65598;SHT31;52267;51.984;20.956;2022-08-25T05:33:58;22.17;83.64
65598;SHT31;52267;51.984;20.956;2022-08-25T05:36:26;22.23;83.43
65598;SHT31;52267;51.984;20.956;2022-08-25T05:38:54;22.25;83.38
65598;SHT31;52267;51.984;20.956;2022-08-25T05:41:24;22.29;83.28
65598;SHT31;52267;51.984;20.956;2022-08-25T05:43:54;22.32;83.09
65598;SHT31;52267;51.984;20.956;2022-08-25T05:46:21;22.37;83.07
65598;SHT31;52267;51.984;20.956;2022-08-25T05:48:49;22.41;82.92
65598;SHT31;52267;51.984;20.956;2022-08-25T05:51:16;22.45;82.77
65598;SHT31;52267;51.984;20.956;2022-08-25T05:53:48;22.51;82.67
65598;SHT31;52267;51.984;20.956;2022-08-25T05:56:17;22.55;82.44
65598;SHT31;52267;51.984;20.956;2022-08-25T05:58:44;22.59;82.34
65598;SHT31;52267;51.984;20.956;2022-08-25T06:01:19;22.66;82.27
65598;SHT31;52267;51.984;20.956;2022-08-25T06:04:11;22.73;82.24
65598;SHT31;52267;51.984;20.956;2022-08-25T06:06:40;22.78;82.13
65598;SHT31;52267;51.984;20.956;2022-08-25T06:09:07;22.82;81.90
65598;SHT31;52267;51.984;20.956;2022-08-25T06:11:38;22.87;81.77
65598;SHT31;52267;51.984;20.956;2022-08-25T06:14:06;22.87;81.31
65598;SHT31;52267;51.984;20.956;2022-08-25T06:16:35;22.88;81.48
65598;SHT31;52267;51.984;20.956;2022-08-25T06:19:04;22.92;81.27
65598;SHT31;52267;51.984;20.956;2022-08-25T06:21:33;22.95;81.17
65598;SHT31;52267;51.984;20.956;2022-08-25T06:24:04;23.00;81.26
65598;SHT31;52267;51.984;20.956;2022-08-25T06:26:31;23.07;81.15
65598;SHT31;52267;51.984;20.956;2022-08-25T06:28:59;23.13;81.20
65598;SHT31;52267;51.984;20.956;2022-08-25T06:31:26;23.20;81.15
65598;SHT31;52267;51.984;20.956;2022-08-25T06:33:53;23.26;80.71
65598;SHT31;52267;51.984;20.956;2022-08-25T06:36:20;23.34;80.48
65598;SHT31;52267;51.984;20.956;2022-08-25T06:38:47;23.41;80.59
65598;SHT31;52267;51.984;20.956;2022-08-25T06:41:14;23.48;80.15
65598;SHT31;52267;51.984;20.956;2022-08-25T06:43:42;23.54;80.06
65598;SHT31;52267;51.984;20.956;2022-08-25T06:46:14;23.60;80.07
65598;SHT31;52267;51.984;20.956;2022-08-25T06:48:47;23.65;79.63
65598;SHT31;52267;51.984;20.956;2022-08-25T06:51:16;23.70;79.62
65598;SHT31;52267;51.984;20.956;2022-08-25T06:53:45;23.80;79.71
65598;SHT31;52267;51.984;20.956;2022-08-25T06:56:19;23.91;79.46
65598;SHT31;52267;51.984;20.956;2022-08-25T06:58:47;24.02;79.00
65598;SHT31;52267;51.984;20.956;2022-08-25T07:01:15;24.17;78.65
65598;SHT31;52267;51.984;20.956;2022-08-25T07:03:49;24.23;76.57
65598;SHT31;52267;51.984;20.956;2022-08-25T07:06:16;24.33;77.15
65598;SHT31;52267;51.984;20.956;2022-08-25T07:08:44;24.47;76.82
65598;SHT31;52267;51.984;20.956;2022-08-25T07:11:13;24.58;76.66
65598;SHT31;52267;51.984;20.956;2022-08-25T07:13:41;24.72;75.63
65598;SHT31;52267;51.984;20.956;2022-08-25T07:16:08;24.91;75.70
65598;SHT31;52267;51.984;20.956;2022-08-25T07:18:36;25.15;75.50
65598;SHT31;52267;51.984;20.956;2022-08-25T07:21:03;25.23;73.78
65598;SHT31;52267;51.984;20.956;2022-08-25T07:23:30;25.28;73.40
65598;SHT31;52267;51.984;20.956;2022-08-25T07:26:05;25.45;74.23
65598;SHT31;52267;51.984;20.956;2022-08-25T07:28:46;25.64;73.93
65598;SHT31;52267;51.984;20.956;2022-08-25T07:31:14;25.77;73.60
65598;SHT31;52267;51.984;20.956;2022-08-25T07:33:41;25.91;73.26
65598;SHT31;52267;51.984;20.956;2022-08-25T07:36:29;26.09;72.97
65598;SHT31;52267;51.984;20.956;2022-08-25T07:38:57;26.36;72.90
65598;SHT31;52267;51.984;20.956;2022-08-25T07:41:25;26.67;72.04
65598;SHT31;52267;51.984;20.956;2022-08-25T07:43:52;26.97;71.25
65598;SHT31;52267;51.984;20.956;2022-08-25T07:46:19;27.20;71.03
65598;SHT31;52267;51.984;20.956;2022-08-25T07:48:46;27.27;69.50
65598;SHT31;52267;51.984;20.956;2022-08-25T07:51:13;27.33;69.45
65598;SHT31;52267;51.984;20.956;2022-08-25T07:53:41;27.43;69.48
65598;SHT31;52267;51.984;20.956;2022-08-25T07:56:12;27.54;69.36
65598;SHT31;52267;51.984;20.956;2022-08-25T07:58:42;27.65;69.08
65598;SHT31;52267;51.984;20.956;2022-08-25T08:01:14;27.66;68.36
65598;SHT31;52267;51.984;20.956;2022-08-25T08:03:43;27.64;67.42
65598;SHT31;52267;51.984;20.956;2022-08-25T08:06:12;27.68;68.18
65598;SHT31;52267;51.984;20.956;2022-08-25T08:08:42;27.71;67.56
65598;SHT31;52267;51.984;20.956;2022-08-25T08:11:17;27.78;68.50
65598;SHT31;52267;51.984;20.956;2022-08-25T08:14:06;27.97;68.61
65598;SHT31;52267;51.984;20.956;2022-08-25T08:16:33;28.14;67.61
65598;SHT31;52267;51.984;20.956;2022-08-25T08:19:00;28.25;67.33
65598;SHT31;52267;51.984;20.956;2022-08-25T08:21:29;28.48;66.70
65598;SHT31;52267;51.984;20.956;2022-08-25T08:23:59;28.57;66.42
65598;SHT31;52267;51.984;20.956;2022-08-25T08:26:27;28.67;65.98
65598;SHT31;52267;51.984;20.956;2022-08-25T08:28:54;28.76;66.48
65598;SHT31;52267;51.984;20.956;2022-08-25T08:31:22;28.92;65.93
65598;SHT31;52267;51.984;20.956;2022-08-25T08:33:52;28.98;65.52
65598;SHT31;52267;51.984;20.956;2022-08-25T08:36:23;29.08;65.42
65598;SHT31;52267;51.984;20.956;2022-08-25T08:38:51;29.17;64.36
65598;SHT31;52267;51.984;20.956;2022-08-25T08:44:14;29.56;64.25
65598;SHT31;52267;51.984;20.956;2022-08-25T08:52:23;30.43;61.73
65598;SHT31;52267;51.984;20.956;2022-08-25T08:58:09;30.71;60.70
65598;SHT31;52267;51.984;20.956;2022-08-25T09:00:47;30.68;59.11
65598;SHT31;52267;51.984;20.956;2022-08-25T09:06:31;31.07;57.84
65598;SHT31;52267;51.984;20.956;2022-08-25T09:09:06;31.31;57.98
65598;SHT31;52267;51.984;20.956;2022-08-25T09:17:06;32.11;56.54
65598;SHT31;52267;51.984;20.956;2022-08-25T09:26:13;32.72;54.91
65598;SHT31;52267;51.984;20.956;2022-08-25T09:31:36;32.98;54.21
65598;SHT31;52267;51.984;20.956;2022-08-25T09:34:10;32.76;51.50
65598;SHT31;52267;51.984;20.956;2022-08-25T09:36:47;32.98;54.36
65598;SHT31;52267;51.984;20.956;2022-08-25T09:39:18;33.27;53.17
65598;SHT31;52267;51.984;20.956;2022-08-25T09:41:47;33.52;53.35
65598;SHT31;52267;51.984;20.956;2022-08-25T09:45:05;33.64;52.27
65598;SHT31;52267;51.984;20.956;2022-08-25T09:49:44;33.99;49.64
65598;SHT31;52267;51.984;20.956;2022-08-25T09:52:35;34.30;50.38
65598;SHT31;52267;51.984;20.956;2022-08-25T09:57:44;34.30;48.10
65598;SHT31;52267;51.984;20.956;2022-08-25T10:00:19;34.31;48.00
65598;SHT31;52267;51.984;20.956;2022-08-25T10:03:15;34.32;46.57
65598;SHT31;52267;51.984;20.956;2022-08-25T10:06:00;34.37;45.71
65598;SHT31;52267;51.984;20.956;2022-08-25T10:08:50;34.47;46.48
65598;SHT31;52267;51.984;20.956;2022-08-25T10:16:49;35.08;42.12
65598;SHT31;52267;51.984;20.956;2022-08-25T10:19:24;35.14;43.46
65598;SHT31;52267;51.984;20.956;2022-08-25T10:24:32;34.90;43.44
65598;SHT31;52267;51.984;20.956;2022-08-25T10:27:04;35.00;42.72
65598;SHT31;52267;51.984;20.956;2022-08-25T10:32:25;35.26;43.29
65598;SHT31;52267;51.984;20.956;2022-08-25T10:35:12;35.36;42.41
65598;SHT31;52267;51.984;20.956;2022-08-25T10:40:53;35.25;39.84
65598;SHT31;52267;51.984;20.956;2022-08-25T10:49:18;35.13;38.22
65598;SHT31;52267;51.984;20.956;2022-08-25T10:52:15;35.16;38.68
65598;SHT31;52267;51.984;20.956;2022-08-25T10:55:12;35.39;38.13
65598;SHT31;52267;51.984;20.956;2022-08-25T10:57:54;35.31;36.08
65598;SHT31;52267;51.984;20.956;2022-08-25T11:00:51;35.06;36.80
65598;SHT31;52267;51.984;20.956;2022-08-25T11:03:51;35.08;36.43
65598;SHT31;52267;51.984;20.956;2022-08-25T11:06:34;35.04;36.06
65598;SHT31;52267;51.984;20.956;2022-08-25T11:09:22;35.07;36.38
65598;SHT31;52267;51.984;20.956;2022-08-25T11:14:42;35.11;35.94
65598;SHT31;52267;51.984;20.956;2022-08-25T11:17:19;35.15;36.69
65598;SHT31;52267;51.984;20.956;2022-08-25T11:19:55;35.17;36.41
65598;SHT31;52267;51.984;20.956;2022-08-25T11:22:45;34.94;34.64
65598;SHT31;52267;51.984;20.956;2022-08-25T11:25:33;34.81;35.60
65598;SHT31;52267;51.984;20.956;2022-08-25T11:28:15;34.82;36.13
65598;SHT31;52267;51.984;20.956;2022-08-25T11:30:51;34.81;36.26
65598;SHT31;52267;51.984;20.956;2022-08-25T11:33:23;34.78;35.57
65598;SHT31;52267;51.984;20.956;2022-08-25T11:35:59;34.76;35.07
65598;SHT31;52267;51.984;20.956;2022-08-25T11:38:45;34.74;35.28
65598;SHT31;52267;51.984;20.956;2022-08-25T11:41:40;34.75;36.26
65598;SHT31;52267;51.984;20.956;2022-08-25T11:44:57;34.83;36.04
65598;SHT31;52267;51.984;20.956;2022-08-25T11:53:38;34.63;35.11
65598;SHT31;52267;51.984;20.956;2022-08-25T11:56:09;34.63;35.87
65598;SHT31;52267;51.984;20.956;2022-08-25T11:58:56;34.64;35.73
65598;SHT31;52267;51.984;20.956;2022-08-25T12:15:12;34.44;35.43
65598;SHT31;52267;51.984;20.956;2022-08-25T12:23:35;34.39;34.86
65598;SHT31;52267;51.984;20.956;2022-08-25T12:26:19;34.41;34.75
65598;SHT31;52267;51.984;20.956;2022-08-25T12:29:15;34.36;34.43
65598;SHT31;52267;51.984;20.956;2022-08-25T12:32:05;34.35;34.64
65598;SHT31;52267;51.984;20.956;2022-08-25T12:37:58;34.40;34.27
65598;SHT31;52267;51.984;20.956;2022-08-25T12:43:12;34.43;34.30
65598;SHT31;52267;51.984;20.956;2022-08-25T12:45:53;34.54;35.08
65598;SHT31;52267;51.984;20.956;2022-08-25T12:51:47;34.63;33.97
65598;SHT31;52267;51.984;20.956;2022-08-25T12:57:41;34.53;34.07
65598;SHT31;52267;51.984;20.956;2022-08-25T13:06:26;34.64;34.05
65598;SHT31;52267;51.984;20.956;2022-08-25T13:12:26;34.53;33.80
65598;SHT31;52267;51.984;20.956;2022-08-25T13:15:06;34.47;33.74
65598;SHT31;52267;51.984;20.956;2022-08-25T13:17:41;34.42;33.57
65598;SHT31;52267;51.984;20.956;2022-08-25T13:20:12;34.40;33.54
65598;SHT31;52267;51.984;20.956;2022-08-25T13:22:46;34.43;33.78
65598;SHT31;52267;51.984;20.956;2022-08-25T13:25:16;34.46;33.68
65598;SHT31;52267;51.984;20.956;2022-08-25T13:27:53;34.46;34.02
65598;SHT31;52267;51.984;20.956;2022-08-25T13:32:55;34.45;33.91
65598;SHT31;52267;51.984;20.956;2022-08-25T13:35:27;34.46;34.30
65598;SHT31;52267;51.984;20.956;2022-08-25T13:38:13;34.45;33.96
65598;SHT31;52267;51.984;20.956;2022-08-25T13:40:42;34.42;34.33
65598;SHT31;52267;51.984;20.956;2022-08-25T13:43:11;34.46;34.43
65598;SHT31;52267;51.984;20.956;2022-08-25T13:45:41;34.48;34.13
65598;SHT31;52267;51.984;20.956;2022-08-25T13:48:10;34.49;34.21
65598;SHT31;52267;51.984;20.956;2022-08-25T13:50:40;34.51;34.47
65598;SHT31;52267;51.984;20.956;2022-08-25T13:53:12;34.56;33.57
65598;SHT31;52267;51.984;20.956;2022-08-25T13:55:50;34.52;33.19
65598;SHT31;52267;51.984;20.956;2022-08-25T13:58:34;34.45;33.54
65598;SHT31;52267;51.984;20.956;2022-08-25T14:03:54;34.39;33.45
65598;SHT31;52267;51.984;20.956;2022-08-25T14:07:23;34.45;34.07
65598;SHT31;52267;51.984;20.956;2022-08-25T14:17:44;34.31;34.94
65598;SHT31;52267;51.984;20.956;2022-08-25T14:20:32;34.33;34.28
65598;SHT31;52267;51.984;20.956;2022-08-25T14:23:03;34.25;34.19
65598;SHT31;52267;51.984;20.956;2022-08-25T14:25:33;34.19;34.03
65598;SHT31;52267;51.984;20.956;2022-08-25T14:28:02;34.14;33.48
65598;SHT31;52267;51.984;20.956;2022-08-25T14:30:35;34.13;33.78
65598;SHT31;52267;51.984;20.956;2022-08-25T14:33:08;34.11;33.92
65598;SHT31;52267;51.984;20.956;2022-08-25T14:35:36;34.04;33.98
65598;SHT31;52267;51.984;20.956;2022-08-25T14:38:06;33.98;33.55
65598;SHT31;52267;51.984;20.956;2022-08-25T14:40:36;33.99;34.08
65598;SHT31;52267;51.984;20.956;2022-08-25T14:43:05;34.00;34.44
65598;SHT31;52267;51.984;20.956;2022-08-25T14:45:36;33.95;34.18
65598;SHT31;52267;51.984;20.956;2022-08-25T14:48:08;33.89;34.01
65598;SHT31;52267;51.984;20.956;2022-08-25T14:50:43;33.78;33.67
65598;SHT31;52267;51.984;20.956;2022-08-25T14:53:11;33.69;33.32
65598;SHT31;52267;51.984;20.956;2022-08-25T14:55:38;33.63;33.87
65598;SHT31;52267;51.984;20.956;2022-08-25T14:58:05;33.61;34.24
65598;SHT31;52267;51.984;20.956;2022-08-25T15:00:42;33.59;34.46
65598;SHT31;52267;51.984;20.956;2022-08-25T15:03:11;33.56;34.01
65598;SHT31;52267;51.984;20.956;2022-08-25T15:05:41;33.51;34.38
65598;SHT31;52267;51.984;20.956;2022-08-25T15:08:08;33.42;34.01
65598;SHT31;52267;51.984;20.956;2022-08-25T15:10:54;33.39;34.30
65598;SHT31;52267;51.984;20.956;2022-08-25T15:13:21;33.34;34.62
65598;SHT31;52267;51.984;20.956;2022-08-25T15:15:49;33.30;35.29
65598;SHT31;52267;51.984;20.956;2022-08-25T15:18:16;33.28;35.85
65598;SHT31;52267;51.984;20.956;2022-08-25T15:20:43;33.20;34.52
65598;SHT31;52267;51.984;20.956;2022-08-25T15:23:10;33.13;34.77
65598;SHT31;52267;51.984;20.956;2022-08-25T15:25:37;33.03;35.09
65598;SHT31;52267;51.984;20.956;2022-08-25T15:28:06;32.94;34.64
65598;SHT31;52267;51.984;20.956;2022-08-25T15:30:34;32.92;35.36
65598;SHT31;52267;51.984;20.956;2022-08-25T15:33:01;32.84;35.48
65598;SHT31;52267;51.984;20.956;2022-08-25T15:35:28;32.79;35.63
65598;SHT31;52267;51.984;20.956;2022-08-25T15:37:55;32.69;35.73
65598;SHT31;52267;51.984;20.956;2022-08-25T15:40:22;32.61;36.67
65598;SHT31;52267;51.984;20.956;2022-08-25T15:42:50;32.56;36.08
65598;SHT31;52267;51.984;20.956;2022-08-25T15:45:17;32.52;35.91
65598;SHT31;52267;51.984;20.956;2022-08-25T15:47:44;32.43;35.58
65598;SHT31;52267;51.984;20.956;2022-08-25T15:50:12;32.39;35.64
65598;SHT31;52267;51.984;20.956;2022-08-25T15:52:42;32.28;35.57
65598;SHT31;52267;51.984;20.956;2022-08-25T15:55:09;32.15;36.24
65598;SHT31;52267;51.984;20.956;2022-08-25T15:57:37;32.06;36.61
65598;SHT31;52267;51.984;20.956;2022-08-25T16:00:05;31.97;36.12
65598;SHT31;52267;51.984;20.956;2022-08-25T16:02:37;31.86;36.92
65598;SHT31;52267;51.984;20.956;2022-08-25T16:05:06;31.79;37.47
65598;SHT31;52267;51.984;20.956;2022-08-25T16:07:34;31.73;37.72
65598;SHT31;52267;51.984;20.956;2022-08-25T16:10:01;31.66;37.60
65598;SHT31;52267;51.984;20.956;2022-08-25T16:12:28;31.58;37.89
65598;SHT31;52267;51.984;20.956;2022-08-25T16:14:56;31.51;38.54
65598;SHT31;52267;51.984;20.956;2022-08-25T16:17:23;31.46;38.55
65598;SHT31;52267;51.984;20.956;2022-08-25T16:19:50;31.39;39.25
65598;SHT31;52267;51.984;20.956;2022-08-25T16:22:20;31.24;39.27
65598;SHT31;52267;51.984;20.956;2022-08-25T16:24:47;31.14;39.83
65598;SHT31;52267;51.984;20.956;2022-08-25T16:27:14;31.04;40.14
65598;SHT31;52267;51.984;20.956;2022-08-25T16:29:41;30.97;40.44
65598;SHT31;52267;51.984;20.956;2022-08-25T16:32:10;30.90;40.92
65598;SHT31;52267;51.984;20.956;2022-08-25T16:34:39;30.76;42.06
65598;SHT31;52267;51.984;20.956;2022-08-25T16:37:07;30.60;42.58
65598;SHT31;52267;51.984;20.956;2022-08-25T16:39:34;30.43;44.19
65598;SHT31;52267;51.984;20.956;2022-08-25T16:42:01;30.27;44.79
65598;SHT31;52267;51.984;20.956;2022-08-25T16:44:28;30.11;45.26
65598;SHT31;52267;51.984;20.956;2022-08-25T16:46:54;29.95;46.12
65598;SHT31;52267;51.984;20.956;2022-08-25T16:49:22;29.76;46.49
65598;SHT31;52267;51.984;20.956;2022-08-25T16:51:49;29.57;47.24
65598;SHT31;52267;51.984;20.956;2022-08-25T16:54:17;29.44;47.76
65598;SHT31;52267;51.984;20.956;2022-08-25T16:57:02;29.23;48.33
65598;SHT31;52267;51.984;20.956;2022-08-25T16:59:32;29.06;48.95
65598;SHT31;52267;51.984;20.956;2022-08-25T17:02:00;28.87;49.96
65598;SHT31;52267;51.984;20.956;2022-08-25T17:04:27;28.65;50.60
65598;SHT31;52267;51.984;20.956;2022-08-25T17:06:54;28.42;51.04
65598;SHT31;52267;51.984;20.956;2022-08-25T17:09:21;28.23;51.92
65598;SHT31;52267;51.984;20.956;2022-08-25T17:11:47;28.01;52.69
65598;SHT31;52267;51.984;20.956;2022-08-25T17:14:17;27.77;52.93
65598;SHT31;52267;51.984;20.956;2022-08-25T17:16:44;27.59;53.60
65598;SHT31;52267;51.984;20.956;2022-08-25T17:19:13;27.35;54.47
65598;SHT31;52267;51.984;20.956;2022-08-25T17:21:42;27.15;55.01
65598;SHT31;52267;51.984;20.956;2022-08-25T17:24:11;26.93;55.61
65598;SHT31;52267;51.984;20.956;2022-08-25T17:26:39;26.72;56.05
65598;SHT31;52267;51.984;20.956;2022-08-25T17:29:09;26.52;56.79
65598;SHT31;52267;51.984;20.956;2022-08-25T17:31:37;26.29;57.24
65598;SHT31;52267;51.984;20.956;2022-08-25T17:34:06;26.14;57.15
65598;SHT31;52267;51.984;20.956;2022-08-25T17:36:38;25.98;57.76
65598;SHT31;52267;51.984;20.956;2022-08-25T17:39:06;25.82;58.26
65598;SHT31;52267;51.984;20.956;2022-08-25T17:41:35;25.62;58.95
65598;SHT31;52267;51.984;20.956;2022-08-25T17:44:02;25.45;59.40